createdAt,value
2018-06-18T00:01:15.420Z,5.20
2018-06-18T00:03:43.678Z,4.90
2018-06-18T00:06:11.896Z,4.90
2018-06-18T00:08:40.128Z,5.00
2018-06-18T00:11:08.444Z,5.10
2018-06-18T00:13:37.046Z,4.73
2018-06-18T00:16:05.473Z,5.40
2018-06-18T00:18:33.743Z,5.07
2018-06-18T00:21:01.965Z,5.13
2018-06-18T00:23:30.262Z,4.97
2018-06-18T00:25:58.504Z,4.83
2018-06-18T00:28:26.594Z,5.40
2018-06-18T00:30:54.847Z,5.00
2018-06-18T00:33:23.099Z,5.20
2018-06-18T00:35:51.397Z,4.93
2018-06-18T00:38:19.409Z,5.13
2018-06-18T00:40:47.608Z,4.87
2018-06-18T00:43:15.865Z,4.60
2018-06-18T00:45:44.093Z,5.20
2018-06-18T00:48:12.369Z,5.40
2018-06-18T00:50:40.771Z,5.20
2018-06-18T00:53:09.007Z,5.67
2018-06-18T00:55:48.525Z,5.23
2018-06-18T00:58:16.754Z,4.93
2018-06-18T01:00:44.959Z,4.93
2018-06-18T01:03:13.192Z,5.93
2018-06-18T01:05:41.536Z,4.93
2018-06-18T01:08:09.781Z,5.53
2018-06-18T01:10:38.016Z,5.57
2018-06-18T01:13:06.277Z,5.50
2018-06-18T01:15:34.293Z,5.53
2018-06-18T01:18:02.545Z,5.20
2018-06-18T01:20:30.808Z,5.17
2018-06-18T01:23:06.380Z,5.57
2018-06-18T01:25:34.584Z,5.30
2018-06-18T01:28:02.881Z,5.87
2018-06-18T01:30:31.115Z,5.73
2018-06-18T01:32:59.346Z,5.60
2018-06-18T01:35:27.804Z,5.97
2018-06-18T01:37:56.031Z,6.27
2018-06-18T01:40:24.376Z,5.83
2018-06-18T01:42:52.701Z,5.70
2018-06-18T01:45:20.950Z,5.47
2018-06-18T01:47:49.216Z,5.67
2018-06-18T01:50:17.456Z,5.83
2018-06-18T01:52:45.666Z,6.13
2018-06-18T01:55:13.940Z,5.37
2018-06-18T01:57:42.145Z,6.00
2018-06-18T02:00:10.399Z,6.00
2018-06-18T02:02:38.630Z,6.40
2018-06-18T02:05:06.885Z,5.87
2018-06-18T02:07:35.101Z,6.37
2018-06-18T02:10:03.352Z,6.30
2018-06-18T02:12:31.571Z,5.80
2018-06-18T02:14:59.828Z,6.70
2018-06-18T02:17:28.047Z,5.70
2018-06-18T02:19:56.280Z,6.10
2018-06-18T02:22:24.493Z,5.97
2018-06-18T02:24:52.841Z,6.07
2018-06-18T02:27:21.067Z,5.57
2018-06-18T02:29:54.755Z,6.23
2018-06-18T02:32:28.436Z,6.00
2018-06-18T02:35:02.362Z,5.60
2018-06-18T02:37:35.962Z,6.23
2018-06-18T02:40:09.537Z,6.17
2018-06-18T02:42:37.781Z,5.97
2018-06-18T02:45:06.037Z,6.20
2018-06-18T02:47:34.088Z,6.27
2018-06-18T02:50:02.291Z,6.10
2018-06-18T02:52:31.698Z,5.70
2018-06-18T02:54:59.898Z,5.87
2018-06-18T02:57:28.152Z,6.07
2018-06-18T02:59:56.377Z,6.00
2018-06-18T03:02:24.619Z,6.20
2018-06-18T03:04:52.828Z,5.50
2018-06-18T03:07:21.437Z,6.03
2018-06-18T03:09:49.416Z,5.80
2018-06-18T03:12:17.636Z,6.30
2018-06-18T03:14:45.870Z,5.73
2018-06-18T03:17:14.136Z,5.70
2018-06-18T03:19:47.857Z,5.70
2018-06-18T03:22:21.796Z,6.67
2018-06-18T03:24:55.388Z,6.17
2018-06-18T03:27:28.972Z,5.93
2018-06-18T03:29:57.216Z,6.37
2018-06-18T03:32:25.513Z,6.47
2018-06-18T03:34:53.772Z,6.47
2018-06-18T03:37:22.044Z,6.10
2018-06-18T03:39:50.299Z,6.50
2018-06-18T03:42:18.790Z,6.30
2018-06-18T03:44:55.405Z,5.90
2018-06-18T03:47:26.011Z,6.17
2018-06-18T03:49:54.457Z,6.00
2018-06-18T03:52:23.163Z,5.80
2018-06-18T03:54:53.577Z,6.00
2018-06-18T03:57:21.805Z,6.37
2018-06-18T03:59:50.073Z,5.87
2018-06-18T04:02:31.620Z,6.20
2018-06-18T04:05:05.213Z,6.30
2018-06-18T04:07:42.380Z,6.30
2018-06-18T04:10:15.959Z,6.17
2018-06-18T04:12:44.211Z,6.40
2018-06-18T04:15:12.463Z,6.07
2018-06-18T04:17:40.904Z,6.17
2018-06-18T04:20:09.165Z,5.83
2018-06-18T04:22:37.415Z,6.40
2018-06-18T04:25:05.803Z,6.57
2018-06-18T04:27:34.029Z,6.23
2018-06-18T04:30:02.042Z,5.50
2018-06-18T04:32:30.321Z,5.97
2018-06-18T04:35:01.592Z,5.50
2018-06-18T04:37:29.869Z,5.33
2018-06-18T04:39:58.069Z,5.03
2018-06-18T04:42:31.667Z,5.23
2018-06-18T04:45:05.207Z,5.27
2018-06-18T04:47:39.173Z,4.90
2018-06-18T04:50:12.669Z,5.70
2018-06-18T04:52:40.894Z,5.40
2018-06-18T04:55:09.192Z,6.40
2018-06-18T04:57:37.426Z,5.03
2018-06-18T05:00:17.056Z,5.20
2018-06-18T05:02:45.321Z,5.60
2018-06-18T05:05:13.661Z,6.00
2018-06-18T05:07:41.963Z,5.37
2018-06-18T05:10:13.996Z,5.47
2018-06-18T05:12:42.220Z,5.57
2018-06-18T05:15:10.506Z,5.47
2018-06-18T05:17:39.657Z,4.40
2018-06-18T05:20:08.588Z,5.07
2018-06-18T05:22:36.848Z,5.03
2018-06-18T05:25:05.085Z,5.20
2018-06-18T05:27:34.506Z,4.60
2018-06-18T05:30:07.535Z,4.70
2018-06-18T05:32:35.823Z,5.00
2018-06-18T05:35:04.036Z,4.60
2018-06-18T05:37:36.711Z,4.37
2018-06-18T05:40:04.989Z,4.90
2018-06-18T05:42:33.266Z,5.40
2018-06-18T05:45:01.319Z,5.17
2018-06-18T05:47:29.598Z,4.50
2018-06-18T05:49:57.848Z,5.50
2018-06-18T05:52:26.112Z,5.40
2018-06-18T05:54:54.382Z,4.97
2018-06-18T05:57:22.645Z,5.73
2018-06-18T05:59:50.884Z,5.60
2018-06-18T06:02:19.157Z,5.50
2018-06-18T06:04:47.960Z,5.07
2018-06-18T06:07:16.188Z,5.87
2018-06-18T06:09:44.504Z,4.93
2018-06-18T06:12:12.524Z,5.23
2018-06-18T06:14:41.282Z,5.43
2018-06-18T06:17:09.614Z,5.10
2018-06-18T06:19:37.834Z,5.13
2018-06-18T06:22:06.081Z,4.80
2018-06-18T06:24:34.246Z,4.93
2018-06-18T06:27:02.513Z,5.40
2018-06-18T06:29:30.803Z,4.90
2018-06-18T06:31:59.064Z,5.27
2018-06-18T06:34:27.296Z,4.90
2018-06-18T06:36:55.550Z,4.90
2018-06-18T06:39:23.835Z,5.23
2018-06-18T06:41:56.828Z,4.83
2018-06-18T06:44:25.102Z,4.33
2018-06-18T06:46:53.405Z,4.10
2018-06-18T06:49:21.679Z,4.77
2018-06-18T06:51:49.928Z,4.90
2018-06-18T06:54:18.193Z,4.50
2018-06-18T06:56:46.428Z,4.13
2018-06-18T06:59:14.723Z,3.77
2018-06-18T07:01:43.016Z,4.27
2018-06-18T07:04:11.299Z,3.77
2018-06-18T07:06:39.564Z,4.43
2018-06-18T07:09:09.849Z,4.20
2018-06-18T07:11:38.540Z,4.00
2018-06-18T07:14:07.154Z,3.73
2018-06-18T07:16:35.428Z,3.67
2018-06-18T07:19:03.894Z,4.00
2018-06-18T07:21:32.201Z,4.27
2018-06-18T07:24:00.439Z,3.40
2018-06-18T07:26:28.692Z,3.70
2018-06-18T07:28:56.959Z,3.70
2018-06-18T07:31:25.256Z,3.77
2018-06-18T07:33:53.371Z,3.80
2018-06-18T07:36:21.652Z,3.77
2018-06-18T07:38:50.054Z,4.20
2018-06-18T07:41:18.303Z,3.70
2018-06-18T07:43:46.533Z,3.10
2018-06-18T07:46:14.585Z,3.67
2018-06-18T07:48:42.808Z,3.20
2018-06-18T07:51:11.036Z,3.67
2018-06-18T07:53:39.288Z,3.00
2018-06-18T07:56:07.512Z,2.90
2018-06-18T07:58:35.739Z,3.50
2018-06-18T08:01:03.985Z,3.30
2018-06-18T08:03:32.253Z,2.77
2018-06-18T08:06:00.497Z,2.80
2018-06-18T08:08:28.740Z,3.00
2018-06-18T08:10:57.341Z,2.92
2018-06-18T08:13:25.620Z,2.87
2018-06-18T08:15:53.964Z,2.83
2018-06-18T08:18:22.192Z,2.85
2018-06-18T08:20:50.417Z,3.25
2018-06-18T08:23:19.297Z,3.00
2018-06-18T08:25:47.524Z,2.45
2018-06-18T08:28:16.160Z,2.62
2018-06-18T08:30:44.401Z,2.40
2018-06-18T08:33:12.630Z,2.33
2018-06-18T08:35:40.880Z,2.55
2018-06-18T08:38:09.133Z,2.80
2018-06-18T08:40:37.384Z,2.90
2018-06-18T08:43:05.934Z,2.62
2018-06-18T08:45:34.148Z,2.97
2018-06-18T08:48:02.387Z,3.13
2018-06-18T08:50:36.174Z,3.10
2018-06-18T08:53:09.797Z,3.23
2018-06-18T08:55:43.406Z,3.43
2018-06-18T08:58:16.885Z,4.00
2018-06-18T09:01:54.362Z,3.00
2018-06-18T09:04:28.074Z,3.60
2018-06-18T09:07:02.953Z,3.13
2018-06-18T09:09:31.450Z,3.00
2018-06-18T09:11:59.694Z,2.83
2018-06-18T09:14:27.959Z,2.23
2018-06-18T09:16:55.963Z,2.70
2018-06-18T09:19:24.239Z,2.57
2018-06-18T09:21:52.492Z,2.83
2018-06-18T09:24:24.976Z,2.60
2018-06-18T09:29:36.496Z,2.80
2018-06-18T09:32:09.335Z,2.27
2018-06-18T09:34:37.444Z,2.00
2018-06-18T09:37:05.738Z,2.30
2018-06-18T09:39:34.120Z,2.05
2018-06-18T09:42:02.505Z,2.20
2018-06-18T09:44:30.772Z,1.87
2018-06-18T09:46:59.393Z,2.52
2018-06-18T09:49:32.952Z,2.25
2018-06-18T09:52:07.374Z,2.22
2018-06-18T09:54:40.942Z,2.22
2018-06-18T09:57:24.260Z,2.22
2018-06-18T09:59:58.652Z,2.80
2018-06-18T10:02:28.785Z,2.95
2018-06-18T10:04:58.465Z,2.35
2018-06-18T10:07:26.732Z,2.60
2018-06-18T10:09:55.452Z,2.40
2018-06-18T10:12:23.736Z,2.50
2018-06-18T10:14:51.992Z,3.08
2018-06-18T10:17:20.459Z,2.85
2018-06-18T10:19:50.130Z,2.75
2018-06-18T10:22:18.353Z,3.30
2018-06-18T10:24:46.673Z,3.02
2018-06-18T10:27:14.929Z,3.40
2018-06-18T10:29:43.162Z,3.00
2018-06-18T10:32:16.783Z,3.17
2018-06-18T10:34:50.506Z,3.70
2018-06-18T10:37:24.220Z,3.40
2018-06-18T10:39:57.961Z,3.27
2018-06-18T10:42:31.533Z,2.80
2018-06-18T10:44:59.822Z,3.00
2018-06-18T10:47:28.076Z,3.07
2018-06-18T10:49:56.477Z,2.80
2018-06-18T10:52:24.785Z,3.00
2018-06-18T10:54:53.109Z,2.73
2018-06-18T10:57:21.335Z,3.00
2018-06-18T10:59:49.620Z,3.17
2018-06-18T11:02:17.844Z,3.47
2018-06-18T11:04:51.553Z,3.35
2018-06-18T11:07:19.801Z,3.08
2018-06-18T11:09:48.020Z,3.37
2018-06-18T11:12:16.284Z,3.05
2018-06-18T11:14:44.506Z,3.20
2018-06-18T11:17:18.362Z,2.52
2018-06-18T11:19:51.787Z,2.50
2018-06-18T11:22:20.021Z,2.70
2018-06-18T11:24:53.699Z,2.90
2018-06-18T11:27:22.003Z,2.75
2018-06-18T11:29:50.233Z,2.98
2018-06-18T11:32:18.576Z,2.90
2018-06-18T11:34:46.797Z,2.83
2018-06-18T11:37:15.007Z,3.12
2018-06-18T11:39:43.240Z,3.33
2018-06-18T11:42:11.562Z,3.23
2018-06-18T11:44:39.796Z,2.50
2018-06-18T11:47:08.020Z,2.90
2018-06-18T11:49:36.252Z,2.90
2018-06-18T11:52:04.480Z,3.13
2018-06-18T11:54:32.733Z,3.23
2018-06-18T11:57:01.003Z,3.03
2018-06-18T11:59:34.805Z,2.70
2018-06-18T12:02:08.238Z,3.30
2018-06-18T12:04:41.881Z,2.65
2018-06-18T12:07:15.450Z,2.85
2018-06-18T12:09:44.227Z,3.77
2018-06-18T12:12:12.510Z,3.12
2018-06-18T12:14:40.763Z,2.70
2018-06-18T12:17:09.054Z,2.50
2018-06-18T12:19:37.312Z,2.60
2018-06-18T12:22:05.579Z,3.20
2018-06-18T12:24:33.856Z,3.03
2018-06-18T12:27:02.662Z,2.80
2018-06-18T12:29:30.631Z,2.50
2018-06-18T12:31:58.880Z,2.00
2018-06-18T12:34:27.123Z,2.30
2018-06-18T12:36:56.224Z,2.50
2018-06-18T12:39:24.441Z,1.90
2018-06-18T12:41:59.800Z,2.40
2018-06-18T12:44:32.388Z,2.73
2018-06-18T12:49:10.600Z,2.40
2018-06-18T12:51:44.228Z,2.40
2018-06-18T12:54:17.643Z,2.47
2018-06-18T12:56:51.272Z,2.25
2018-06-18T12:59:19.499Z,2.40
2018-06-18T13:01:55.332Z,2.30
2018-06-18T13:04:23.661Z,2.93
2018-06-18T13:06:51.959Z,2.70
2018-06-18T13:09:20.214Z,2.90
2018-06-18T13:11:48.530Z,2.40
2018-06-18T13:14:16.813Z,2.20
2018-06-18T13:16:45.062Z,2.30
2018-06-18T13:19:13.503Z,2.17
2018-06-18T13:21:42.240Z,2.10
2018-06-18T13:24:10.920Z,2.10
2018-06-18T13:26:40.196Z,1.87
2018-06-18T13:29:08.479Z,2.10
2018-06-18T13:31:36.741Z,2.25
2018-06-18T13:34:04.967Z,2.50
2018-06-18T13:36:33.232Z,2.40
2018-06-18T13:39:06.821Z,2.47
2018-06-18T13:41:40.388Z,2.30
2018-06-18T13:44:14.193Z,2.57
2018-06-18T13:46:48.122Z,2.58
2018-06-18T13:49:17.404Z,2.47
2018-06-18T13:51:45.723Z,2.37
2018-06-18T13:54:16.277Z,2.10
2018-06-18T13:56:44.567Z,2.15
2018-06-18T13:59:12.817Z,2.10
2018-06-18T14:01:41.068Z,2.25
2018-06-18T14:04:09.425Z,2.20
2018-06-18T14:06:37.657Z,2.10
2018-06-18T14:09:07.585Z,2.15
2018-06-18T14:11:35.884Z,2.27
2018-06-18T14:14:04.272Z,2.47
2018-06-18T14:16:32.629Z,2.60
2018-06-18T14:19:05.103Z,2.15
2018-06-18T14:21:33.381Z,2.13
2018-06-18T14:24:01.614Z,2.37
2018-06-18T14:26:29.892Z,2.43
2018-06-18T14:28:58.289Z,2.20
2018-06-18T14:31:31.927Z,2.47
2018-06-18T14:34:05.590Z,2.50
2018-06-18T14:36:39.193Z,2.60
2018-06-18T14:39:13.254Z,2.67
2018-06-18T14:41:41.541Z,2.57
2018-06-18T14:44:09.792Z,3.10
2018-06-18T14:46:38.150Z,2.03
2018-06-18T14:49:06.380Z,2.83
2018-06-18T14:51:34.694Z,2.07
2018-06-18T14:54:02.996Z,2.20
2018-06-18T14:56:34.202Z,2.13
2018-06-18T14:59:06.417Z,2.33
2018-06-18T15:01:34.644Z,2.60
2018-06-18T15:04:03.266Z,2.60
2018-06-18T15:06:31.585Z,2.47
2018-06-18T15:08:59.975Z,2.93
2018-06-18T15:11:28.165Z,2.40
2018-06-18T15:13:56.555Z,2.27
2018-06-18T15:16:30.116Z,2.20
2018-06-18T15:18:59.176Z,2.13
2018-06-18T15:21:28.276Z,2.20
2018-06-18T15:23:57.185Z,2.00
2018-06-18T15:26:25.541Z,2.50
2018-06-18T15:28:53.919Z,2.70
2018-06-18T15:31:22.175Z,2.35
2018-06-18T15:33:50.451Z,2.10
2018-06-18T15:36:18.696Z,2.30
2018-06-18T15:38:46.968Z,2.10
2018-06-18T15:41:15.210Z,2.50
2018-06-18T15:43:43.553Z,2.00
2018-06-18T15:46:11.886Z,2.50
2018-06-18T15:48:40.492Z,2.57
2018-06-18T15:51:08.723Z,2.37
2018-06-18T15:53:37.046Z,3.80
2018-06-18T15:56:05.493Z,2.10
2018-06-18T15:58:33.758Z,2.27
2018-06-18T16:01:02.249Z,2.40
2018-06-18T16:03:30.656Z,2.03
2018-06-18T16:05:58.916Z,2.60
2018-06-18T16:08:27.241Z,2.43
2018-06-18T16:10:55.742Z,2.30
2018-06-18T16:13:24.033Z,2.50
2018-06-18T16:15:52.342Z,2.90
2018-06-18T16:18:20.837Z,2.67
2018-06-18T16:20:49.089Z,2.43
2018-06-18T16:23:17.334Z,2.33
2018-06-18T16:25:45.644Z,2.70
2018-06-18T16:28:13.923Z,2.40
2018-06-18T16:30:42.161Z,2.50
2018-06-18T16:33:10.468Z,2.10
2018-06-18T16:35:38.714Z,2.17
2018-06-18T16:38:07.000Z,2.10
2018-06-18T16:40:35.408Z,1.83
2018-06-18T16:43:03.750Z,1.90
2018-06-18T16:45:32.141Z,2.37
2018-06-18T16:48:00.511Z,2.10
2018-06-18T16:50:28.852Z,2.10
2018-06-18T16:52:57.317Z,2.37
2018-06-18T16:55:25.619Z,2.10
2018-06-18T16:57:53.979Z,1.83
2018-06-18T17:00:22.890Z,2.53
2018-06-18T17:02:51.199Z,2.23
2018-06-18T17:05:19.429Z,2.00
2018-06-18T17:07:47.730Z,2.40
2018-06-18T17:10:16.033Z,2.20
2018-06-18T17:12:44.079Z,2.20
2018-06-18T17:15:12.393Z,1.83
2018-06-18T17:17:40.660Z,2.20
2018-06-18T17:20:08.906Z,1.90
2018-06-18T17:22:37.578Z,2.27
2018-06-18T17:25:05.883Z,2.50
2018-06-18T17:27:34.125Z,2.10
2018-06-18T17:30:02.464Z,2.60
2018-06-18T17:32:30.745Z,2.20
2018-06-18T17:34:59.111Z,1.87
2018-06-18T17:37:27.380Z,2.10
2018-06-18T17:39:56.748Z,1.67
2018-06-18T17:42:24.988Z,1.90
2018-06-18T17:44:53.294Z,1.80
2018-06-18T17:47:21.593Z,2.10
2018-06-18T17:49:50.017Z,2.13
2018-06-18T17:52:18.251Z,1.60
2018-06-18T17:54:46.505Z,2.10
2018-06-18T17:57:14.735Z,1.60
2018-06-18T17:59:42.994Z,2.17
2018-06-18T18:02:10.994Z,1.70
2018-06-18T18:04:39.284Z,1.80
2018-06-18T18:07:07.883Z,1.57
2018-06-18T18:09:36.161Z,1.53
2018-06-18T18:12:04.443Z,1.70
2018-06-18T18:14:32.772Z,1.77
2018-06-18T18:17:01.156Z,1.37
2018-06-18T18:19:29.476Z,1.40
2018-06-18T18:21:57.733Z,1.30
2018-06-18T18:24:25.994Z,1.40
2018-06-18T18:26:54.288Z,1.23
2018-06-18T18:29:22.570Z,1.10
2018-06-18T18:31:50.953Z,1.30
2018-06-18T18:34:19.232Z,1.40
2018-06-18T18:36:47.604Z,1.37
2018-06-18T18:39:15.954Z,1.40
2018-06-18T18:41:44.293Z,1.13
2018-06-18T18:44:12.608Z,1.50
2018-06-18T18:46:40.844Z,1.47
2018-06-18T18:49:09.059Z,1.40
2018-06-18T18:51:37.285Z,1.27
2018-06-18T18:54:05.633Z,1.20
2018-06-18T18:56:49.789Z,1.17
2018-06-18T18:59:19.739Z,1.30
2018-06-18T19:01:48.253Z,1.17
2018-06-18T19:04:21.065Z,1.70
2018-06-18T19:06:49.372Z,1.47
2018-06-18T19:09:19.194Z,1.23
2018-06-18T19:11:47.508Z,1.43
2018-06-18T19:14:15.713Z,1.10
2018-06-18T19:16:43.943Z,1.30
2018-06-18T19:19:12.328Z,1.10
2018-06-18T19:21:40.812Z,1.30
2018-06-18T19:24:09.030Z,1.23
2018-06-18T19:26:37.417Z,1.30
2018-06-18T19:29:05.885Z,1.40
2018-06-18T19:31:34.303Z,1.40
2018-06-18T19:34:09.293Z,1.30
2018-06-18T19:36:39.215Z,1.30
2018-06-18T19:39:08.981Z,1.20
2018-06-18T19:41:37.428Z,1.20
2018-06-18T19:44:05.717Z,1.63
2018-06-18T19:46:53.318Z,1.67
2018-06-18T19:49:21.601Z,1.43
2018-06-18T19:51:49.860Z,1.27
2018-06-18T19:54:20.982Z,1.60
2018-06-18T19:56:49.293Z,1.10
2018-06-18T19:59:17.526Z,1.60
2018-06-18T20:01:45.851Z,1.50
2018-06-18T20:04:14.152Z,1.40
2018-06-18T20:06:42.394Z,1.43
2018-06-18T20:09:11.964Z,1.40
2018-06-18T20:11:40.307Z,1.60
2018-06-18T20:14:08.574Z,1.77
2018-06-18T20:16:36.837Z,1.60
2018-06-18T20:19:05.092Z,1.50
2018-06-18T20:21:33.364Z,1.70
2018-06-18T20:24:01.597Z,1.60
2018-06-18T20:26:29.805Z,1.60
2018-06-18T20:28:58.693Z,1.67
2018-06-18T20:31:26.891Z,1.90
2018-06-18T20:33:56.709Z,1.80
2018-06-18T20:36:25.952Z,1.60
2018-06-18T20:38:54.188Z,1.63
2018-06-18T20:41:22.661Z,1.60
2018-06-18T20:43:58.688Z,1.80
2018-06-18T20:46:26.934Z,1.87
2018-06-18T20:48:55.195Z,1.63
2018-06-18T20:51:23.501Z,1.70
2018-06-18T20:53:51.740Z,1.90
2018-06-18T20:56:19.944Z,1.97
2018-06-18T20:58:48.275Z,2.00
2018-06-18T21:01:16.536Z,1.90
2018-06-18T21:03:44.811Z,2.10
2018-06-18T21:06:13.025Z,1.80
2018-06-18T21:08:41.276Z,1.90
2018-06-18T21:11:09.569Z,2.10
2018-06-18T21:13:37.774Z,1.80
2018-06-18T21:16:06.025Z,2.30
2018-06-18T21:18:34.244Z,2.20
2018-06-18T21:21:02.472Z,2.20
2018-06-18T21:23:30.680Z,2.10
2018-06-18T21:25:58.932Z,2.00
2018-06-18T21:28:27.146Z,2.00
2018-06-18T21:30:55.438Z,2.30
2018-06-18T21:33:23.680Z,2.20
2018-06-18T21:35:51.917Z,2.60
2018-06-18T21:38:20.349Z,2.37
2018-06-18T21:40:48.597Z,2.40
2018-06-18T21:43:16.822Z,2.40
2018-06-18T21:45:45.097Z,2.07
2018-06-18T21:48:13.337Z,2.30
2018-06-18T21:50:41.774Z,2.33
2018-06-18T21:53:10.311Z,2.23
2018-06-18T21:55:38.613Z,2.40
2018-06-18T21:58:07.068Z,2.30
2018-06-18T22:00:38.998Z,2.70
2018-06-18T22:03:07.302Z,2.73
2018-06-18T22:05:35.546Z,2.50
2018-06-18T22:08:05.729Z,2.33
2018-06-18T22:10:33.960Z,2.40
2018-06-18T22:13:02.205Z,2.10
2018-06-18T22:15:30.470Z,2.40
2018-06-18T22:17:58.718Z,2.20
2018-06-18T22:20:26.984Z,2.07
2018-06-18T22:22:55.204Z,2.10
2018-06-18T22:25:23.176Z,2.40
2018-06-18T22:27:51.487Z,1.73
2018-06-18T22:30:19.709Z,2.13
2018-06-18T22:32:47.984Z,2.10
2018-06-18T22:35:16.209Z,2.37
2018-06-18T22:37:44.536Z,2.10
2018-06-18T22:40:12.746Z,2.00
2018-06-18T22:42:40.975Z,2.40
2018-06-18T22:45:11.184Z,2.67
2018-06-18T22:47:39.441Z,2.50
2018-06-18T22:50:08.476Z,2.57
2018-06-18T22:52:36.715Z,2.70
2018-06-18T22:55:05.111Z,2.40
2018-06-18T22:57:33.340Z,2.80
2018-06-18T23:00:01.558Z,2.90
2018-06-18T23:02:31.301Z,2.87
2018-06-18T23:04:59.520Z,2.53
2018-06-18T23:07:27.776Z,2.73
2018-06-18T23:09:56.005Z,3.10
2018-06-18T23:12:30.193Z,3.07
2018-06-18T23:14:58.424Z,2.87
2018-06-18T23:17:26.682Z,2.47
2018-06-18T23:19:54.906Z,2.60
2018-06-18T23:22:23.138Z,3.07
2018-06-18T23:24:51.345Z,2.50
2018-06-18T23:27:19.572Z,3.00
2018-06-18T23:29:47.817Z,2.83
2018-06-18T23:32:16.065Z,2.67
2018-06-18T23:34:44.297Z,3.00
2018-06-18T23:37:12.359Z,2.63
2018-06-18T23:39:40.627Z,2.60
2018-06-18T23:42:08.863Z,2.73
2018-06-18T23:44:37.072Z,2.80
2018-06-18T23:47:05.320Z,3.03
2018-06-18T23:49:33.532Z,3.30
2018-06-18T23:52:01.783Z,3.10
2018-06-18T23:54:30.184Z,2.63
2018-06-18T23:56:58.401Z,2.60
2018-06-18T23:59:26.635Z,2.50
